Time;durP1;ratioP1;P1;durP2;ratioP2;P2;SDS_P1;SDS_P2;PMS_P1;PMS_P2;Temp;Humidity;BMP_temperature;BMP_pressure;BME280_temperature;BME280_humidity;BME280_pressure;Samples;Min_cycle;Max_cycle;Signal;HPM_P1;HPM_P2
2023/07/13 00:01:15;;;;;;;4.10;2.80;;;;;;;25.99;63.38;100485.83;108093;1283;22089;-59
2023/07/13 00:03:41;;;;;;;3.80;2.80;;;;;;;26.01;63.83;100486.77;108086;1283;22047;-66
2023/07/13 00:06:07;;;;;;;5.10;3.20;;;;;;;26.02;63.87;100483.10;108076;1283;21990;-66
2023/07/13 00:08:32;;;;;;;4.10;2.50;;;;;;;26.04;63.89;100475.58;108080;1277;21987;-59
2023/07/13 00:10:59;;;;;;;4.40;2.90;;;;;;;26.06;64.00;100473.08;108070;1288;21996;-66
2023/07/13 00:13:25;;;;;;;6.40;3.10;;;;;;;26.06;64.11;100470.54;108090;1283;22001;-66
2023/07/13 00:15:50;;;;;;;6.20;3.00;;;;;;;26.05;63.91;100467.24;108095;1284;22000;-59
2023/07/13 00:18:16;;;;;;;4.00;2.60;;;;;;;26.02;64.73;100467.98;108082;1288;21984;-66
2023/07/13 00:20:41;;;;;;;4.80;2.90;;;;;;;25.97;65.86;100462.21;108168;1287;21987;-59
2023/07/13 00:23:07;;;;;;;5.60;3.10;;;;;;;25.93;65.60;100456.61;108051;1287;21998;-66
2023/07/13 00:25:33;;;;;;;4.10;2.60;;;;;;;25.89;66.31;100455.83;108061;1283;21992;-60
2023/07/13 00:27:59;;;;;;;5.80;3.10;;;;;;;25.85;66.39;100457.89;108081;1283;21992;-66
2023/07/13 00:30:26;;;;;;;6.70;3.10;;;;;;;25.83;67.63;100453.73;108062;1288;22003;-59
2023/07/13 00:32:52;;;;;;;6.10;3.10;;;;;;;25.80;66.95;100452.86;107981;1288;21995;-66
2023/07/13 00:35:18;;;;;;;5.70;3.10;;;;;;;25.81;67.67;100453.52;108103;1282;21986;-66
2023/07/13 00:37:43;;;;;;;5.00;2.80;;;;;;;25.82;69.68;100453.67;108063;1283;21992;-66
2023/07/13 00:40:11;;;;;;;5.00;3.10;;;;;;;25.79;68.96;100455.81;108048;1283;21992;-58
2023/07/13 00:42:39;;;;;;;5.00;2.50;;;;;;;25.79;68.62;100451.39;108113;1280;23786;-59
2023/07/13 00:45:13;;;;;;;4.80;2.50;;;;;;;25.80;69.22;100442.15;108052;1283;21986;-59
2023/07/13 00:47:39;;;;;;;7.50;3.10;;;;;;;25.79;68.72;100437.66;107832;1288;22001;-58
2023/07/13 00:50:08;;;;;;;5.50;2.60;;;;;;;25.80;67.57;100439.08;108098;1288;21984;-66
2023/07/13 00:52:36;;;;;;;4.90;3.20;;;;;;;25.84;68.13;100440.73;108081;1285;21996;-66
2023/07/13 00:55:02;;;;;;;4.10;2.60;;;;;;;25.87;68.95;100438.70;107817;1289;21996;-59
2023/07/13 00:57:28;;;;;;;6.00;2.70;;;;;;;25.89;69.32;100440.54;107848;1288;21991;-58
2023/07/13 00:59:55;;;;;;;4.10;2.70;;;;;;;25.90;70.00;100446.91;108060;1283;22000;-66
2023/07/13 01:02:22;;;;;;;6.40;2.90;;;;;;;25.90;72.17;100450.14;108079;1288;21996;-66
2023/07/13 01:04:47;;;;;;;6.30;2.70;;;;;;;25.90;71.91;100454.16;107835;1288;21988;-66
2023/07/13 01:07:13;;;;;;;4.80;2.50;;;;;;;25.90;69.94;100455.54;108091;1283;22009;-62
2023/07/13 01:09:39;;;;;;;4.50;2.50;;;;;;;25.94;69.97;100449.70;107824;1288;21992;-67
2023/07/13 01:12:06;;;;;;;7.40;2.70;;;;;;;25.99;70.13;100445.71;108126;1280;22028;-68
2023/07/13 01:14:31;;;;;;;8.90;3.10;;;;;;;26.00;71.25;100446.00;108083;1287;21992;-60
2023/07/13 01:17:00;;;;;;;7.80;2.80;;;;;;;26.00;71.74;100441.69;108141;1287;23734;-60
2023/07/13 01:19:42;;;;;;;7.10;2.90;;;;;;;26.02;71.50;100437.61;108129;1284;22012;-60
2023/07/13 01:22:13;;;;;;;4.80;2.50;;;;;;;26.06;71.74;100433.15;108111;1288;23272;-68
2023/07/13 01:24:40;;;;;;;5.20;3.00;;;;;;;26.05;72.66;100432.16;107984;1286;22069;-68
2023/07/13 01:27:07;;;;;;;6.00;3.00;;;;;;;26.06;71.99;100433.84;108095;1287;21987;-60
2023/07/13 01:29:33;;;;;;;4.80;2.70;;;;;;;26.08;71.38;100431.70;108113;1281;21987;-61
2023/07/13 01:32:00;;;;;;;4.10;2.60;;;;;;;26.11;70.12;100432.55;108143;1280;22027;-61
2023/07/13 01:34:27;;;;;;;4.30;2.60;;;;;;;26.15;71.04;100430.70;108082;1284;21989;-68
2023/07/13 01:36:55;;;;;;;3.70;2.40;;;;;;;26.17;71.14;100429.30;108128;1287;21995;-60
2023/07/13 01:39:21;;;;;;;4.00;2.40;;;;;;;26.17;71.50;100424.79;108116;1287;21991;-60
2023/07/13 01:41:47;;;;;;;7.10;2.80;;;;;;;26.18;72.59;100427.23;108108;1283;21997;-61
2023/07/13 01:44:13;;;;;;;7.70;2.50;;;;;;;26.18;71.92;100423.79;108120;1280;21987;-61
2023/07/13 01:46:39;;;;;;;6.90;2.80;;;;;;;26.18;73.50;100420.04;108128;1288;21987;-62
2023/07/13 01:49:05;;;;;;;5.30;2.80;;;;;;;26.17;73.83;100419.77;108101;1277;21996;-68
2023/07/13 01:51:31;;;;;;;4.00;2.40;;;;;;;26.17;71.88;100415.08;108106;1288;22043;-62
2023/07/13 01:53:56;;;;;;;5.20;2.90;;;;;;;26.20;72.39;100411.81;108082;1283;21990;-68
2023/07/13 01:56:22;;;;;;;4.70;2.80;;;;;;;26.21;73.26;100403.23;108116;1283;21989;-61
2023/07/13 01:58:48;;;;;;;5.00;2.80;;;;;;;26.24;71.93;100399.29;108084;1288;22001;-68
2023/07/13 02:01:13;;;;;;;5.10;2.90;;;;;;;26.27;71.99;100399.95;108124;1288;21997;-60
2023/07/13 02:03:39;;;;;;;3.50;2.40;;;;;;;26.28;71.75;100396.08;108101;1283;22122;-67
2023/07/13 02:06:05;;;;;;;4.60;2.80;;;;;;;26.30;72.53;100395.39;108075;1283;21980;-68
2023/07/13 02:08:34;;;;;;;5.00;2.60;;;;;;;26.31;71.77;100394.19;108109;1284;21996;-67
2023/07/13 02:11:02;;;;;;;8.70;2.90;;;;;;;26.33;71.84;100388.27;108140;1279;21986;-68
2023/07/13 02:13:30;;;;;;;6.50;2.90;;;;;;;26.35;71.95;100387.44;108117;1288;21951;-65
2023/07/13 02:15:55;;;;;;;3.90;2.40;;;;;;;26.35;72.18;100385.77;108137;1288;21998;-59
2023/07/13 02:18:21;;;;;;;5.50;3.00;;;;;;;26.34;75.31;100387.91;108095;1283;22776;-59
2023/07/13 02:20:47;;;;;;;5.50;2.80;;;;;;;26.33;73.58;100383.79;108112;1283;21989;-66
2023/07/13 02:23:16;;;;;;;6.90;2.40;;;;;;;26.34;72.54;100385.88;108117;1283;22048;-66
2023/07/13 02:25:42;;;;;;;3.50;2.30;;;;;;;26.35;74.89;100386.19;108114;1279;22003;-58
2023/07/13 02:28:08;;;;;;;4.40;2.70;;;;;;;26.35;73.09;100384.55;108067;1284;22013;-60
2023/07/13 02:30:34;;;;;;;6.00;2.70;;;;;;;26.37;73.39;100380.06;108101;1276;24320;-59
2023/07/13 02:33:00;;;;;;;5.20;2.70;;;;;;;26.40;72.73;100378.78;108142;1284;22962;-60
2023/07/13 02:35:25;;;;;;;3.60;2.40;;;;;;;26.43;72.62;100386.42;108023;1288;22001;-59
2023/07/13 02:37:51;;;;;;;4.40;2.50;;;;;;;26.46;74.33;100386.23;108010;1286;21990;-60
2023/07/13 02:40:17;;;;;;;3.90;2.50;;;;;;;26.47;73.97;100383.61;107986;1280;21991;-59
2023/07/13 02:42:42;;;;;;;3.90;2.50;;;;;;;26.48;72.96;100380.99;108011;1287;21994;-66
2023/07/13 02:45:09;;;;;;;6.40;2.60;;;;;;;26.56;72.87;100383.06;108018;1288;21989;-66
2023/07/13 02:47:35;;;;;;;5.50;2.60;;;;;;;26.66;72.19;100383.88;108032;1284;21999;-66
2023/07/13 02:50:01;;;;;;;7.00;3.00;;;;;;;26.69;72.68;100385.42;108058;1287;21988;-66
2023/07/13 02:52:27;;;;;;;4.40;2.40;;;;;;;26.71;73.76;100385.30;108098;1283;22021;-60
2023/07/13 02:54:54;;;;;;;5.10;2.50;;;;;;;26.71;73.62;100387.23;108062;1288;21994;-60
2023/07/13 02:57:20;;;;;;;5.00;2.60;;;;;;;26.75;72.31;100385.16;107957;1286;24069;-63
2023/07/13 02:59:46;;;;;;;4.20;2.50;;;;;;;26.80;73.40;100386.41;108103;1284;21986;-67
2023/07/13 03:02:11;;;;;;;5.20;2.40;;;;;;;26.81;73.38;100383.96;108042;1288;21990;-67
2023/07/13 03:04:37;;;;;;;5.10;2.70;;;;;;;26.79;76.09;100380.50;108051;1288;22057;-60
2023/07/13 03:07:03;;;;;;;4.70;2.70;;;;;;;26.82;73.47;100380.34;108072;1284;22002;-60
2023/07/13 03:09:30;;;;;;;4.10;2.70;;;;;;;26.82;74.30;100379.38;108144;1288;22000;-67
2023/07/13 03:11:56;;;;;;;4.90;2.40;;;;;;;26.82;75.19;100375.60;108169;1288;21997;-67
2023/07/13 03:14:22;;;;;;;8.10;2.70;;;;;;;26.84;74.89;100374.96;108125;1280;21994;-68
2023/07/13 03:16:48;;;;;;;5.80;2.50;;;;;;;26.84;76.17;100374.02;108091;1283;21989;-60
2023/07/13 03:19:13;;;;;;;5.20;2.70;;;;;;;26.80;74.97;100376.16;108131;1288;22028;-67
2023/07/13 03:21:39;;;;;;;4.50;2.60;;;;;;;26.79;75.86;100378.37;108090;1283;21990;-66
2023/07/13 03:24:05;;;;;;;6.30;2.60;;;;;;;26.82;75.60;100376.34;108163;1283;21990;-67
2023/07/13 03:26:32;;;;;;;5.50;2.60;;;;;;;26.87;75.78;100367.70;108143;1288;22080;-67
2023/07/13 03:28:58;;;;;;;4.80;2.50;;;;;;;26.90;75.42;100363.47;108083;1284;21980;-67
2023/07/13 03:31:26;;;;;;;4.70;2.20;;;;;;;26.95;75.82;100362.17;108087;1287;21991;-60
2023/07/13 03:33:52;;;;;;;4.90;2.80;;;;;;;26.99;77.38;100366.11;108092;1288;21990;-66
2023/07/13 03:36:26;;;;;;;7.80;3.10;;;;;;;27.03;76.93;100362.65;108081;1284;21960;-63
2023/07/13 03:38:55;;;;;;;5.80;2.80;;;;;;;27.05;76.01;100362.98;108100;1288;21988;-67
2023/07/13 03:41:21;;;;;;;4.70;2.50;;;;;;;27.08;75.68;100363.10;108123;1287;21986;-59
2023/07/13 03:43:48;;;;;;;5.40;2.70;;;;;;;27.11;76.02;100365.19;108125;1288;22055;-60
2023/07/13 03:46:14;;;;;;;5.90;3.00;;;;;;;27.16;76.43;100363.71;108128;1284;21990;-67
2023/07/13 03:48:42;;;;;;;6.50;2.50;;;;;;;27.19;75.66;100366.73;108096;1288;23065;-66
2023/07/13 03:51:08;;;;;;;8.50;3.00;;;;;;;27.21;75.47;100364.88;108126;1283;21983;-60
2023/07/13 03:53:38;;;;;;;6.80;3.20;;;;;;;27.26;74.62;100365.02;108086;1284;21995;-66
2023/07/13 03:56:04;;;;;;;9.50;5.20;;;;;;;27.30;77.07;100366.36;108119;1287;22060;-66
2023/07/13 03:58:37;;;;;;;9.00;6.00;;;;;;;27.31;76.37;100364.95;108024;1288;140390;-62
2023/07/13 04:01:05;;;;;;;9.90;5.20;;;;;;;27.36;75.55;100362.83;108123;1284;22000;-62
2023/07/13 04:03:32;;;;;;;9.90;4.60;;;;;;;27.41;74.84;100365.80;108117;1287;21995;-66
2023/07/13 04:06:00;;;;;;;5.00;3.30;;;;;;;27.46;75.23;100372.21;108101;1280;21989;-67
2023/07/13 04:08:27;;;;;;;5.10;3.30;;;;;;;27.51;75.06;100370.26;108151;1283;21994;-67
2023/07/13 04:10:53;;;;;;;5.30;3.00;;;;;;;27.55;75.92;100372.22;108077;1288;21992;-60
2023/07/13 04:13:18;;;;;;;6.80;3.20;;;;;;;27.60;75.80;100367.64;108074;1287;21992;-60
2023/07/13 04:15:44;;;;;;;8.50;4.40;;;;;;;27.67;75.57;100370.16;108102;1289;21989;-60
2023/07/13 04:18:10;;;;;;;6.50;3.80;;;;;;;27.73;75.54;100367.10;108089;1287;21984;-60
2023/07/13 04:20:36;;;;;;;7.00;4.10;;;;;;;27.81;76.21;100363.77;108092;1287;21994;-67
2023/07/13 04:23:02;;;;;;;7.10;4.90;;;;;;;27.87;76.37;100364.30;108104;1277;21996;-66
2023/07/13 04:25:27;;;;;;;5.10;3.30;;;;;;;27.75;78.64;100362.95;108157;1286;21989;-59
2023/07/13 04:27:54;;;;;;;5.10;3.40;;;;;;;27.74;78.89;100360.50;108124;1283;22040;-67
2023/07/13 04:30:20;;;;;;;5.40;3.50;;;;;;;27.78;80.41;100358.06;108124;1287;21998;-60
2023/07/13 04:32:45;;;;;;;9.40;3.30;;;;;;;27.91;78.71;100358.21;108085;1287;21972;-65
2023/07/13 04:35:11;;;;;;;5.50;3.30;;;;;;;28.08;78.40;100362.33;108084;1281;22029;-68
2023/07/13 04:37:37;;;;;;;8.00;3.30;;;;;;;28.13;78.58;100360.12;108094;1284;22018;-60
2023/07/13 04:40:03;;;;;;;10.50;3.20;;;;;;;28.15;78.98;100363.19;108077;1288;21973;-61
2023/07/13 04:42:29;;;;;;;8.50;3.40;;;;;;;28.20;77.04;100358.60;108122;1280;21989;-67
2023/07/13 04:44:55;;;;;;;5.20;3.00;;;;;;;28.26;76.47;100358.98;108117;1283;21989;-60
2023/07/13 04:47:21;;;;;;;7.70;3.90;;;;;;;28.32;76.55;100359.73;108104;1288;21983;-67
2023/07/13 04:49:47;;;;;;;6.00;3.10;;;;;;;28.38;78.10;100357.27;108094;1284;23729;-60
2023/07/13 04:52:13;;;;;;;6.60;3.60;;;;;;;28.44;79.96;100354.04;108073;1287;21996;-63
2023/07/13 04:54:38;;;;;;;7.20;3.10;;;;;;;28.52;78.84;100354.17;107855;1288;22060;-68
2023/07/13 04:57:08;;;;;;;5.60;3.10;;;;;;;28.63;79.30;100352.70;108126;1284;22027;-59
2023/07/13 04:59:34;;;;;;;8.40;3.50;;;;;;;28.75;80.64;100357.21;108077;1283;23827;-59
2023/07/13 05:02:00;;;;;;;7.00;3.60;;;;;;;28.88;81.23;100350.88;108157;1288;23651;-59
2023/07/13 05:04:25;;;;;;;8.70;3.70;;;;;;;29.01;81.16;100355.15;108158;1287;22451;-59
2023/07/13 05:06:51;;;;;;;7.50;3.20;;;;;;;29.13;80.89;100358.16;108108;1288;22005;-67
2023/07/13 05:09:17;;;;;;;7.20;3.30;;;;;;;29.27;78.93;100361.27;108150;1288;22021;-59
2023/07/13 05:11:43;;;;;;;6.60;3.20;;;;;;;29.39;78.35;100364.15;108128;1288;21996;-60
2023/07/13 05:14:09;;;;;;;6.70;3.50;;;;;;;29.44;79.10;100369.55;108109;1284;21994;-60
2023/07/13 05:16:36;;;;;;;11.50;4.00;;;;;;;29.48;79.03;100375.95;108175;1288;21998;-67
2023/07/13 05:19:02;;;;;;;9.40;3.30;;;;;;;29.55;78.53;100374.45;108140;1284;21990;-61
2023/07/13 05:21:28;;;;;;;5.80;3.30;;;;;;;29.65;79.13;100371.30;108354;1284;21983;-60
2023/07/13 05:23:54;;;;;;;8.40;3.70;;;;;;;29.71;78.88;100373.71;108029;1287;21991;-59
2023/07/13 05:26:20;;;;;;;7.10;3.30;;;;;;;29.80;78.70;100374.46;108069;1283;21987;-60
2023/07/13 05:28:46;;;;;;;5.70;3.50;;;;;;;29.92;79.04;100377.17;108036;1289;22045;-59
2023/07/13 05:31:12;;;;;;;8.50;3.80;;;;;;;29.93;79.65;100378.71;107837;1289;21985;-61
2023/07/13 05:33:38;;;;;;;6.10;3.60;;;;;;;29.97;78.38;100382.89;107972;1286;21999;-67
2023/07/13 05:36:03;;;;;;;7.80;4.60;;;;;;;30.02;77.48;100393.29;107921;1286;23820;-67
2023/07/13 05:38:29;;;;;;;7.90;4.20;;;;;;;30.16;76.22;100392.15;107977;1289;21990;-68
2023/07/13 05:40:55;;;;;;;11.80;4.10;;;;;;;30.09;76.59;100390.77;108744;1283;22451;-60
2023/07/13 05:43:21;;;;;;;12.10;3.70;;;;;;;30.01;77.32;100395.16;107973;1284;21985;-60
2023/07/13 05:45:47;;;;;;;6.70;3.80;;;;;;;29.98;78.41;100399.27;107949;1289;21992;-68
2023/07/13 05:48:12;;;;;;;9.20;3.70;;;;;;;30.03;79.53;100396.63;107959;1289;21986;-60
2023/07/13 05:50:38;;;;;;;7.70;3.60;;;;;;;30.20;79.16;100392.14;107958;1286;21986;-62
2023/07/13 05:53:04;;;;;;;6.70;3.50;;;;;;;30.36;78.40;100391.69;107966;1289;21989;-68
2023/07/13 05:55:30;;;;;;;10.30;3.50;;;;;;;30.51;77.95;100390.81;107929;1284;21991;-60
2023/07/13 05:57:57;;;;;;;8.30;4.40;;;;;;;30.68;77.34;100388.95;107975;1280;21994;-67
2023/07/13 06:00:24;;;;;;;12.40;4.00;;;;;;;30.89;76.99;100388.59;108030;1281;23423;-67
2023/07/13 06:02:50;;;;;;;10.00;4.50;;;;;;;31.09;76.23;100385.14;107946;1279;21996;-60
2023/07/13 06:05:16;;;;;;;6.00;4.00;;;;;;;31.25;75.75;100378.05;107936;1280;22007;-67
2023/07/13 06:07:42;;;;;;;11.60;4.00;;;;;;;31.39;74.75;100383.98;107964;1280;22472;-60
2023/07/13 06:10:08;;;;;;;8.90;4.10;;;;;;;31.43;73.61;100391.59;108028;1289;21999;-60
2023/07/13 06:12:34;;;;;;;6.20;3.40;;;;;;;31.38;72.44;100391.05;107968;1276;22755;-61
2023/07/13 06:15:01;;;;;;;6.50;4.10;;;;;;;31.30;71.97;100393.24;107950;1287;22948;-61
2023/07/13 06:17:26;;;;;;;6.70;3.30;;;;;;;31.20;72.23;100394.41;107951;1284;22028;-68
2023/07/13 06:19:52;;;;;;;8.00;3.90;;;;;;;31.09;72.68;100403.45;108000;1283;21990;-68
2023/07/13 06:22:18;;;;;;;7.30;3.90;;;;;;;30.94;73.63;100402.04;107989;1285;21996;-68
2023/07/13 06:24:44;;;;;;;6.00;3.60;;;;;;;30.92;73.26;100402.01;107997;1289;21991;-61
2023/07/13 06:27:09;;;;;;;6.00;3.70;;;;;;;30.93;72.74;100400.66;107961;1289;22003;-68
2023/07/13 06:29:36;;;;;;;7.10;3.90;;;;;;;30.94;73.63;100400.55;107992;1289;21993;-68
2023/07/13 06:32:01;;;;;;;6.70;4.00;;;;;;;31.03;73.53;100401.11;107984;1288;21989;-69
2023/07/13 06:34:27;;;;;;;9.60;4.20;;;;;;;31.20;73.55;100395.02;107986;1289;21997;-60
2023/07/13 06:36:53;;;;;;;8.40;4.20;;;;;;;31.37;73.03;100398.36;107944;1287;21987;-62
2023/07/13 06:39:18;;;;;;;8.20;4.00;;;;;;;31.54;72.25;100399.38;107914;1289;21977;-61
2023/07/13 06:41:44;;;;;;;7.80;3.90;;;;;;;31.72;72.00;100396.94;107985;1279;22027;-68
2023/07/13 06:44:10;;;;;;;10.80;4.30;;;;;;;31.92;71.39;100397.55;108036;1286;22027;-68
2023/07/13 06:46:36;;;;;;;6.50;4.20;;;;;;;32.16;70.90;100402.24;108001;1283;22162;-65
2023/07/13 06:49:01;;;;;;;7.50;4.00;;;;;;;32.38;70.07;100403.96;107982;1280;21987;-68
2023/07/13 06:51:27;;;;;;;6.60;3.70;;;;;;;32.51;68.94;100402.11;107970;1287;21997;-61
2023/07/13 06:53:54;;;;;;;8.40;4.30;;;;;;;32.58;67.91;100401.29;107995;1289;22771;-69
2023/07/13 06:56:20;;;;;;;7.60;3.90;;;;;;;32.60;67.08;100401.14;108007;1280;22009;-67
2023/07/13 06:58:45;;;;;;;9.40;3.70;;;;;;;32.61;66.31;100401.77;107993;1287;21999;-68
2023/07/13 07:01:11;;;;;;;8.90;4.10;;;;;;;32.50;65.80;100399.65;108005;1289;22000;-62
2023/07/13 07:03:37;;;;;;;5.80;3.70;;;;;;;32.44;66.39;100396.77;107948;1289;21981;-69
2023/07/13 07:06:11;;;;;;;6.20;4.30;;;;;;;32.48;66.80;100398.73;108046;1289;21992;-62
2023/07/13 07:08:36;;;;;;;8.80;4.50;;;;;;;32.55;66.61;100393.63;108015;1289;21987;-69
2023/07/13 07:11:02;;;;;;;8.10;3.90;;;;;;;32.71;66.37;100392.33;107997;1280;21990;-68
2023/07/13 07:13:28;;;;;;;8.50;4.10;;;;;;;32.93;66.44;100389.13;107964;1289;21953;-67
2023/07/13 07:15:55;;;;;;;7.00;4.00;;;;;;;33.17;65.96;100390.15;108009;1289;21991;-69
2023/07/13 07:18:21;;;;;;;9.70;4.00;;;;;;;33.35;64.52;100386.39;108036;1283;21993;-61
2023/07/13 07:20:48;;;;;;;8.20;4.50;;;;;;;33.46;63.39;100387.64;107968;1289;21989;-62
2023/07/13 07:23:14;;;;;;;10.10;4.60;;;;;;;33.57;63.10;100388.80;107693;1289;22461;-62
2023/07/13 07:25:41;;;;;;;9.00;4.50;;;;;;;33.74;63.20;100388.77;107971;1284;21996;-62
2023/07/13 07:28:08;;;;;;;8.00;3.90;;;;;;;33.95;63.23;100390.42;108056;1289;21992;-69
2023/07/13 07:30:34;;;;;;;10.30;4.50;;;;;;;33.97;60.03;100390.77;108030;1280;23050;-68
2023/07/13 07:33:01;;;;;;;7.80;4.40;;;;;;;33.92;59.64;100390.23;108058;1288;21987;-62
2023/07/13 07:35:26;;;;;;;6.90;4.20;;;;;;;33.89;60.11;100387.59;108055;1289;22048;-70
2023/07/13 07:37:52;;;;;;;13.40;5.00;;;;;;;33.98;59.71;100391.60;107970;1289;22054;-63
2023/07/13 07:40:18;;;;;;;8.10;4.80;;;;;;;34.03;59.43;100391.52;107957;1284;22003;-62
2023/07/13 07:42:44;;;;;;;7.40;4.50;;;;;;;34.11;59.01;100388.38;107997;1284;21993;-63
2023/07/13 07:45:11;;;;;;;7.50;4.60;;;;;;;34.16;58.62;100391.09;107946;1287;23022;-62
2023/07/13 07:47:38;;;;;;;9.90;5.20;;;;;;;34.21;58.47;100392.11;107935;1289;22001;-63
2023/07/13 07:50:05;;;;;;;9.20;4.60;;;;;;;34.33;58.17;100395.66;108012;1281;21986;-62
2023/07/13 07:52:31;;;;;;;9.40;4.30;;;;;;;34.49;58.28;100399.16;107997;1289;21987;-69
2023/07/13 07:54:56;;;;;;;10.00;4.40;;;;;;;34.58;57.73;100395.23;108099;1285;21994;-62
2023/07/13 07:57:22;;;;;;;8.90;4.70;;;;;;;34.64;57.12;100393.45;107964;1289;21957;-69
2023/07/13 07:59:48;;;;;;;6.90;4.60;;;;;;;34.63;55.84;100397.24;107963;1289;22000;-62
2023/07/13 08:02:13;;;;;;;9.60;4.70;;;;;;;34.71;56.42;100398.12;107950;1280;21990;-69
2023/07/13 08:04:39;;;;;;;28.60;5.90;;;;;;;34.89;56.72;100400.14;108181;1287;21992;-69
2023/07/13 08:07:05;;;;;;;10.10;4.70;;;;;;;35.08;55.97;100396.47;108078;1288;21989;-68
2023/07/13 08:09:31;;;;;;;9.40;5.20;;;;;;;35.21;55.37;100396.02;108125;1281;21986;-63
2023/07/13 08:11:57;;;;;;;9.90;5.10;;;;;;;35.30;55.85;100395.59;108101;1289;22222;-66
2023/07/13 08:14:23;;;;;;;11.50;5.50;;;;;;;35.45;54.94;100398.73;108100;1288;21952;-68
2023/07/13 08:16:49;;;;;;;9.00;5.00;;;;;;;35.58;53.39;100398.66;108111;1280;21991;-62
2023/07/13 08:19:14;;;;;;;6.40;4.50;;;;;;;35.74;54.49;100394.28;108111;1288;21983;-60
2023/07/13 08:21:42;;;;;;;10.40;4.50;;;;;;;35.93;53.95;100392.68;108044;1284;21991;-69
2023/07/13 08:24:09;;;;;;;11.40;5.00;;;;;;;36.01;51.35;100390.14;108093;1284;22021;-68
2023/07/13 08:26:35;;;;;;;9.20;4.70;;;;;;;36.03;51.50;100388.78;108134;1288;23623;-62
2023/07/13 08:29:02;;;;;;;7.40;5.30;;;;;;;36.03;50.78;100390.80;108121;1283;21990;-69
2023/07/13 08:31:27;;;;;;;8.40;4.40;;;;;;;36.01;51.27;100386.80;108269;1288;21982;-62
2023/07/13 08:33:53;;;;;;;8.40;4.50;;;;;;;35.99;51.34;100386.98;108073;1284;21992;-67
2023/07/13 08:36:19;;;;;;;8.60;4.70;;;;;;;36.11;52.03;100388.88;107985;1288;21984;-66
2023/07/13 08:38:44;;;;;;;6.10;5.10;;;;;;;36.12;50.03;100390.44;107930;1288;21992;-62
2023/07/13 08:41:13;;;;;;;12.00;4.60;;;;;;;36.11;51.12;100386.21;108175;1287;22632;-76
2023/07/13 08:43:39;;;;;;;7.10;4.60;;;;;;;36.07;50.13;100381.05;108182;1284;21994;-69
2023/07/13 08:46:09;;;;;;;11.10;4.90;;;;;;;36.00;49.98;100381.78;108041;1288;23039;-62
2023/07/13 08:48:56;;;;;;;8.40;4.60;;;;;;;36.07;50.10;100383.44;108260;1287;21992;-67
2023/07/13 08:51:35;;;;;;;7.50;4.80;;;;;;;36.13;50.27;100381.52;108126;1288;22524;-61
2023/07/13 08:54:03;;;;;;;10.70;4.80;;;;;;;36.27;50.47;100382.44;108093;1287;21990;-68
2023/07/13 08:56:30;;;;;;;7.00;4.30;;;;;;;36.44;49.65;100383.32;108128;1283;21985;-61
2023/07/13 08:59:06;;;;;;;9.20;5.30;;;;;;;36.50;48.13;100379.70;108084;1288;21984;-61
2023/07/13 09:01:45;;;;;;;9.50;4.50;;;;;;;36.62;49.18;100375.61;108071;1283;23721;-69
2023/07/13 09:04:22;;;;;;;9.30;4.50;;;;;;;36.81;49.55;100372.42;108078;1277;21986;-68
2023/07/13 09:06:53;;;;;;;16.00;5.30;;;;;;;37.00;47.81;100372.42;108037;1287;21997;-68
2023/07/13 09:09:37;;;;;;;9.30;4.40;;;;;;;37.02;46.78;100371.37;108151;1284;23608;-62
2023/07/13 09:12:18;;;;;;;13.30;5.00;;;;;;;37.09;46.69;100364.21;108078;1287;21989;-69
2023/07/13 09:14:48;;;;;;;7.30;4.30;;;;;;;37.20;47.23;100366.31;108131;1284;23612;-60
2023/07/13 09:17:15;;;;;;;;;;;;;;;37.36;47.56;100368.22;108160;1288;22031;-62
2023/07/13 09:19:41;;;;;;;8.40;4.90;;;;;;;37.53;46.25;100365.81;108064;1287;21991;-69
2023/07/13 09:22:11;;;;;;;9.50;4.60;;;;;;;37.63;47.07;100367.67;107795;1284;21991;-68
2023/07/13 09:24:50;;;;;;;7.90;4.20;;;;;;;37.68;46.72;100361.64;108108;1280;21992;-68
2023/07/13 09:27:24;;;;;;;10.80;4.10;;;;;;;37.72;45.89;100363.02;108111;1288;21997;-67
2023/07/13 09:30:30;;;;;;;6.70;4.20;;;;;;;37.78;46.75;100368.44;108127;1287;22737;-68
2023/07/13 09:32:58;;;;;;;8.30;4.30;;;;;;;37.88;45.14;100370.98;107942;1288;21998;-61
2023/07/13 09:35:28;;;;;;;8.50;4.90;;;;;;;37.83;45.38;100367.29;108024;1277;21987;-69
2023/07/13 09:37:59;;;;;;;8.50;4.40;;;;;;;37.84;45.88;100362.57;107817;1289;21990;-62
2023/07/13 09:40:36;;;;;;;7.10;4.00;;;;;;;37.84;45.12;100354.11;108029;1288;21995;-68
2023/07/13 09:43:04;;;;;;;8.60;4.50;;;;;;;37.96;45.44;100354.33;108154;1284;22014;-60
2023/07/13 09:45:32;;;;;;;7.50;4.40;;;;;;;38.12;45.21;100351.67;107836;1288;21990;-62
2023/07/13 09:48:05;;;;;;;8.50;4.40;;;;;;;38.18;44.98;100350.70;108116;1287;21983;-67
2023/07/13 09:50:31;;;;;;;7.70;4.30;;;;;;;38.24;44.69;100343.05;108047;1288;23640;-62
2023/07/13 09:52:59;;;;;;;8.10;4.40;;;;;;;38.34;45.11;100342.89;108112;1288;21986;-68
2023/07/13 09:55:26;;;;;;;7.20;3.90;;;;;;;38.47;44.61;100339.51;108114;1287;21991;-69
2023/07/13 09:57:52;;;;;;;7.10;4.30;;;;;;;38.58;44.75;100336.52;108104;1288;21989;-69
2023/07/13 10:00:23;;;;;;;10.00;4.50;;;;;;;38.65;44.23;100330.44;108103;1287;21995;-62
2023/07/13 10:02:58;;;;;;;9.20;4.50;;;;;;;38.76;43.09;100325.12;108048;1288;21986;-68
2023/07/13 10:05:25;;;;;;;6.30;3.80;;;;;;;38.97;43.93;100321.73;108146;1288;21992;-62
2023/07/13 10:07:53;;;;;;;7.00;4.30;;;;;;;39.20;44.44;100322.14;108126;1287;23650;-67
2023/07/13 10:10:22;;;;;;;9.50;4.50;;;;;;;39.31;42.48;100320.14;107978;1283;21998;-63
2023/07/13 10:12:49;;;;;;;6.00;3.60;;;;;;;39.40;43.03;100318.59;108138;1287;21956;-62
2023/07/13 10:15:25;;;;;;;7.10;4.10;;;;;;;39.49;43.33;100314.02;108140;1281;21989;-62
2023/07/13 10:17:53;;;;;;;6.00;4.20;;;;;;;39.51;41.99;100310.89;108163;1287;21986;-68
2023/07/13 10:20:19;;;;;;;10.00;4.40;;;;;;;39.59;42.17;100311.56;108156;1288;24058;-65
2023/07/13 10:23:02;;;;;;;7.60;3.90;;;;;;;39.84;43.42;100304.70;107810;1288;23768;-68
2023/07/13 10:25:31;;;;;;;8.20;4.90;;;;;;;40.07;41.54;100303.88;108131;1288;22008;-63
2023/07/13 10:28:02;;;;;;;7.90;4.80;;;;;;;40.18;41.65;100297.23;107887;1283;21998;-63
2023/07/13 10:30:30;;;;;;;6.70;4.00;;;;;;;40.31;41.06;100292.79;108108;1288;21994;-68
2023/07/13 10:33:01;;;;;;;7.50;4.30;;;;;;;40.38;40.29;100288.83;107834;1289;23065;-62
2023/07/13 10:35:29;;;;;;;5.80;3.90;;;;;;;40.26;40.42;100292.92;108114;1288;21992;-69
2023/07/13 10:38:03;;;;;;;8.50;4.60;;;;;;;40.18;39.96;100291.35;108117;1288;23742;-69
2023/07/13 10:40:32;;;;;;;9.70;4.60;;;;;;;40.09;40.09;100287.77;108123;1284;21955;-70
2023/07/13 10:42:58;;;;;;;9.50;4.30;;;;;;;40.12;40.65;100284.23;108084;1288;21989;-62
2023/07/13 10:45:24;;;;;;;7.30;4.30;;;;;;;40.32;40.89;100288.36;108053;1288;22184;-68
2023/07/13 10:47:52;;;;;;;8.60;4.50;;;;;;;40.49;40.43;100282.48;108154;1278;22079;-62
2023/07/13 10:50:20;;;;;;;7.10;4.20;;;;;;;40.52;39.62;100276.13;108100;1283;21985;-62
2023/07/13 10:52:50;;;;;;;8.10;4.10;;;;;;;40.43;39.84;100271.23;107858;1283;21986;-69
2023/07/13 10:55:40;;;;;;;23.30;5.70;;;;;;;40.41;39.64;100271.85;108167;1277;21984;-68
2023/07/13 10:58:14;;;;;;;7.20;4.00;;;;;;;40.35;39.73;100272.43;108064;1288;22008;-69
2023/07/13 11:00:46;;;;;;;9.60;4.40;;;;;;;40.29;39.42;100267.88;108069;1289;23733;-69
2023/07/13 11:03:14;;;;;;;8.60;4.40;;;;;;;40.37;39.40;100270.65;107747;1289;22036;-68
2023/07/13 11:05:39;;;;;;;10.50;4.60;;;;;;;40.43;39.41;100272.17;107975;1289;21996;-63
2023/07/13 11:08:20;;;;;;;10.40;4.20;;;;;;;40.47;39.69;100272.50;107966;1289;22037;-63
2023/07/13 11:10:52;;;;;;;7.90;4.20;;;;;;;40.56;39.64;100268.30;107716;1286;21995;-68
2023/07/13 11:13:37;;;;;;;7.50;4.40;;;;;;;40.61;38.86;100271.67;107760;1289;22022;-63
2023/07/13 11:16:13;;;;;;;8.00;4.60;;;;;;;40.63;38.45;100273.77;107958;1289;22142;-67
2023/07/13 11:18:39;;;;;;;6.70;4.50;;;;;;;40.70;39.05;100273.13;107914;1278;22035;-62